createdAt,value
2023-01-29T00:01:49.157Z,18.35
2023-01-29T00:06:52.514Z,11.32
2023-01-29T00:11:55.926Z,9.85
2023-01-29T00:16:59.052Z,13.38
2023-01-29T00:22:01.897Z,16.75
2023-01-29T00:27:05.141Z,17.50
2023-01-29T00:32:08.141Z,18.83
2023-01-29T00:37:12.893Z,16.52
2023-01-29T00:42:34.221Z,11.35
2023-01-29T00:47:37.651Z,16.20
2023-01-29T00:52:43.801Z,17.17
2023-01-29T00:57:47.297Z,15.63
2023-01-29T01:03:09.087Z,13.40
2023-01-29T01:08:30.396Z,13.45
2023-01-29T01:13:35.220Z,14.77
2023-01-29T01:18:38.442Z,10.52
2023-01-29T01:23:41.647Z,16.95
2023-01-29T01:28:45.431Z,10.45
2023-01-29T01:33:48.414Z,11.85
2023-01-29T01:38:51.642Z,11.07
2023-01-29T01:43:58.044Z,16.80
2023-01-29T01:49:11.351Z,17.60
2023-01-29T01:54:32.274Z,12.90
2023-01-29T01:59:41.420Z,17.67
2023-01-29T02:05:06.906Z,15.68
2023-01-29T02:10:16.293Z,19.40
2023-01-29T02:15:19.869Z,14.82
2023-01-29T02:20:27.141Z,12.20
2023-01-29T02:25:58.813Z,9.18
2023-01-29T02:31:04.540Z,9.98
2023-01-29T02:36:33.168Z,17.65
2023-01-29T02:41:44.927Z,10.80
2023-01-29T02:47:15.480Z,9.23
2023-01-29T02:52:18.500Z,8.88
2023-01-29T02:57:23.667Z,15.15
2023-01-29T03:02:36.331Z,15.82
2023-01-29T03:07:46.688Z,15.48
2023-01-29T03:13:08.285Z,15.85
2023-01-29T03:18:17.417Z,13.88
2023-01-29T03:23:48.332Z,9.02
2023-01-29T03:29:10.456Z,11.18
2023-01-29T03:34:28.668Z,10.32
2023-01-29T03:39:31.948Z,21.17
2023-01-29T03:45:05.653Z,12.45
2023-01-29T03:50:18.631Z,9.65
2023-01-29T03:55:34.061Z,12.20
2023-01-29T04:00:41.519Z,9.57
2023-01-29T04:05:50.076Z,12.82
2023-01-29T04:11:03.973Z,9.50
2023-01-29T04:16:10.409Z,14.15
2023-01-29T04:21:32.152Z,14.00
2023-01-29T04:26:56.924Z,14.48
2023-01-29T04:32:11.911Z,13.05
2023-01-29T04:37:35.882Z,11.07
2023-01-29T04:43:23.151Z,11.80
2023-01-29T04:48:55.284Z,14.55
2023-01-29T04:54:12.742Z,18.05
2023-01-29T04:59:22.435Z,16.58
2023-01-29T05:04:28.051Z,11.82
2023-01-29T05:09:32.628Z,12.02
2023-01-29T05:14:37.844Z,20.23
2023-01-29T05:19:40.931Z,10.93
2023-01-29T05:24:44.854Z,14.52
2023-01-29T05:29:48.956Z,10.00
2023-01-29T05:34:52.001Z,19.00
2023-01-29T05:39:55.271Z,32.42
2023-01-29T05:44:58.327Z,31.23
2023-01-29T05:50:01.373Z,32.90
2023-01-29T05:55:06.916Z,31.52
2023-01-29T06:00:13.251Z,27.15
2023-01-29T06:05:16.086Z,20.88
2023-01-29T06:10:19.699Z,23.73
2023-01-29T06:15:23.175Z,20.48
2023-01-29T06:20:26.828Z,28.35
2023-01-29T06:25:29.890Z,23.88
2023-01-29T06:30:33.259Z,23.25
2023-01-29T06:35:36.669Z,22.10
2023-01-29T06:51:17.607Z,14.73
2023-01-29T06:56:21.025Z,12.82
2023-01-29T07:01:35.649Z,14.13
2023-01-29T07:06:39.477Z,11.95
2023-01-29T07:11:42.403Z,14.95
2023-01-29T07:16:45.421Z,9.48
2023-01-29T07:21:48.299Z,14.38
2023-01-29T07:26:51.299Z,12.70
2023-01-29T07:31:54.860Z,9.23
2023-01-29T07:36:58.044Z,11.63
2023-01-29T07:42:01.578Z,8.13
2023-01-29T07:47:04.710Z,10.98
2023-01-29T07:52:07.815Z,14.68
2023-01-29T07:57:10.907Z,11.35
2023-01-29T08:02:14.127Z,11.32
2023-01-29T08:07:17.212Z,17.65
2023-01-29T08:12:20.201Z,10.43
2023-01-29T08:17:23.072Z,9.82
2023-01-29T08:22:26.076Z,15.73
2023-01-29T08:27:29.361Z,15.50
2023-01-29T08:32:32.751Z,13.05
2023-01-29T08:37:36.721Z,11.38
2023-01-29T08:42:41.669Z,14.93
2023-01-29T08:47:49.357Z,12.20
2023-01-29T08:52:52.559Z,13.40
2023-01-29T08:57:57.628Z,11.95
2023-01-29T09:03:01.429Z,13.55
2023-01-29T09:08:06.245Z,14.27
2023-01-29T09:18:13.434Z,18.13
2023-01-29T09:23:16.473Z,18.30
2023-01-29T09:28:19.350Z,20.10
2023-01-29T09:33:25.062Z,22.35
2023-01-29T09:38:28.027Z,15.32
2023-01-29T09:43:47.572Z,19.83
2023-01-29T09:49:00.760Z,17.20
2023-01-29T09:54:30.057Z,13.20
2023-01-29T09:59:33.420Z,12.23
2023-01-29T10:04:39.196Z,18.42
2023-01-29T10:10:23.316Z,12.73
2023-01-29T10:16:08.868Z,15.05
2023-01-29T10:21:49.396Z,13.88
2023-01-29T10:26:54.347Z,16.83
2023-01-29T10:37:07.286Z,14.88
2023-01-29T10:43:06.895Z,14.60
2023-01-29T10:48:28.778Z,13.90
2023-01-29T10:53:47.234Z,15.02
2023-01-29T10:58:57.982Z,13.38
2023-01-29T11:04:05.370Z,13.05
2023-01-29T11:09:55.757Z,12.98
2023-01-29T11:15:19.055Z,15.63
2023-01-29T11:20:33.279Z,15.43
2023-01-29T11:25:37.083Z,13.55
2023-01-29T11:30:42.196Z,13.90
2023-01-29T11:35:45.228Z,13.63
2023-01-29T11:40:48.660Z,14.43
2023-01-29T11:45:56.630Z,12.50
2023-01-29T11:51:01.353Z,14.18
2023-01-29T11:56:13.918Z,12.90
2023-01-29T12:01:19.687Z,13.07
2023-01-29T12:06:35.786Z,12.18
2023-01-29T12:11:38.844Z,14.88
2023-01-29T12:16:59.131Z,17.60
2023-01-29T12:22:41.140Z,15.93
2023-01-29T12:28:09.535Z,14.05
2023-01-29T12:33:35.602Z,17.10
2023-01-29T12:38:38.628Z,26.80
2023-01-29T12:43:51.243Z,12.45
2023-01-29T12:48:58.001Z,15.43
2023-01-29T12:54:26.216Z,16.98
2023-01-29T13:00:09.603Z,13.60
2023-01-29T13:05:27.099Z,15.20
2023-01-29T13:10:41.507Z,14.00
2023-01-29T13:15:45.142Z,12.25
2023-01-29T13:20:50.359Z,12.77
2023-01-29T13:25:54.423Z,15.40
2023-01-29T13:31:23.294Z,18.10
2023-01-29T13:36:30.046Z,11.20
2023-01-29T13:41:42.941Z,16.48
2023-01-29T13:46:57.389Z,13.23
2023-01-29T13:52:16.447Z,17.25
2023-01-29T13:57:37.637Z,14.60
2023-01-29T14:02:40.834Z,15.75
2023-01-29T14:07:44.445Z,12.43
2023-01-29T14:12:52.318Z,14.77
2023-01-29T14:18:17.246Z,15.80
2023-01-29T14:23:28.935Z,12.15
2023-01-29T14:28:34.782Z,14.50
2023-01-29T14:33:43.430Z,12.90
2023-01-29T14:38:52.524Z,10.80
2023-01-29T14:44:38.355Z,14.95
2023-01-29T14:49:51.654Z,13.00
2023-01-29T14:54:59.840Z,11.95
2023-01-29T15:00:16.336Z,15.63
2023-01-29T15:05:22.114Z,18.58
2023-01-29T15:10:38.654Z,17.48
2023-01-29T15:15:52.345Z,20.70
2023-01-29T15:21:14.701Z,13.82
2023-01-29T15:26:25.934Z,12.57
2023-01-29T15:31:30.241Z,15.05
2023-01-29T15:36:33.559Z,15.38
2023-01-29T15:41:36.739Z,11.80
2023-01-29T15:46:42.208Z,14.18
2023-01-29T15:51:47.819Z,25.20
2023-01-29T15:56:53.309Z,22.13
2023-01-29T16:01:56.763Z,22.30
2023-01-29T16:07:02.166Z,27.70
2023-01-29T16:12:05.693Z,27.15
2023-01-29T16:17:24.713Z,27.20
2023-01-29T16:22:33.718Z,26.58
2023-01-29T16:27:36.896Z,21.73
2023-01-29T16:32:39.929Z,19.08
2023-01-29T16:37:48.004Z,21.25
2023-01-29T16:43:18.192Z,24.63
2023-01-29T16:48:31.996Z,25.20
2023-01-29T16:53:36.337Z,26.45
2023-01-29T16:58:39.553Z,25.45
2023-01-29T17:03:43.008Z,21.95
2023-01-29T17:08:46.377Z,28.35
2023-01-29T17:13:49.745Z,23.35
2023-01-29T17:18:53.025Z,31.70
2023-01-29T17:23:56.160Z,20.08
2023-01-29T17:28:59.382Z,24.52
2023-01-29T17:34:02.287Z,23.83
2023-01-29T17:39:16.976Z,18.75
2023-01-29T17:44:20.432Z,20.50
2023-01-29T17:49:25.308Z,24.42
2023-01-29T17:54:28.425Z,23.77
2023-01-29T17:59:33.935Z,21.90
2023-01-29T18:04:38.556Z,23.27
2023-01-29T18:09:43.491Z,25.85
2023-01-29T18:14:46.341Z,22.85
2023-01-29T18:19:49.873Z,25.50
2023-01-29T18:24:53.366Z,28.27
2023-01-29T18:29:56.278Z,22.80
2023-01-29T18:34:59.020Z,18.40
2023-01-29T18:40:01.883Z,23.27
2023-01-29T18:45:08.768Z,22.83
2023-01-29T18:50:12.263Z,24.05
2023-01-29T18:55:15.258Z,32.47
2023-01-29T19:00:18.757Z,23.88
2023-01-29T19:05:24.166Z,24.67
2023-01-29T19:10:27.094Z,26.08
2023-01-29T19:15:30.324Z,21.73
2023-01-29T19:20:33.117Z,21.10
2023-01-29T19:25:40.260Z,17.50
2023-01-29T19:30:43.438Z,16.80
2023-01-29T19:35:48.762Z,16.10
2023-01-29T19:45:59.227Z,19.45
2023-01-29T19:51:08.855Z,16.20
2023-01-29T19:56:15.511Z,17.33
2023-01-29T20:01:22.229Z,17.45
2023-01-29T20:06:28.114Z,19.27
2023-01-29T20:11:33.273Z,16.38
2023-01-29T20:16:37.242Z,14.82
2023-01-29T20:21:41.333Z,14.68
2023-01-29T20:26:44.691Z,13.43
2023-01-29T20:31:48.001Z,14.77
2023-01-29T20:36:51.160Z,14.75
2023-01-29T20:41:55.516Z,17.40
2023-01-29T20:47:01.866Z,16.27
2023-01-29T20:52:05.109Z,16.33
2023-01-29T20:57:09.649Z,14.25
2023-01-29T21:02:15.463Z,15.77
2023-01-29T21:07:24.863Z,18.85
2023-01-29T21:12:28.323Z,18.70
2023-01-29T21:17:31.191Z,16.40
2023-01-29T21:22:34.439Z,18.00
2023-01-29T21:27:38.166Z,15.18
2023-01-29T21:32:42.157Z,28.10
2023-01-29T21:37:45.052Z,17.75
2023-01-29T21:43:07.232Z,18.38
2023-01-29T21:48:12.235Z,13.80
2023-01-29T21:53:15.692Z,16.08
2023-01-29T21:58:20.930Z,18.13
2023-01-29T22:03:25.114Z,18.10
2023-01-29T22:08:34.254Z,17.05
2023-01-29T22:13:37.377Z,19.77
2023-01-29T22:18:40.783Z,18.60
2023-01-29T22:23:43.623Z,14.63
2023-01-29T22:28:59.086Z,20.58
2023-01-29T22:34:02.585Z,17.75
2023-01-29T22:39:08.081Z,18.80
2023-01-29T22:44:11.208Z,15.68
2023-01-29T22:49:14.201Z,19.60
2023-01-29T22:54:17.291Z,19.38
2023-01-29T22:59:21.863Z,18.60
2023-01-29T23:04:24.963Z,17.42
2023-01-29T23:09:28.175Z,17.83
2023-01-29T23:14:31.215Z,20.10
2023-01-29T23:19:34.204Z,22.13
2023-01-29T23:24:38.165Z,15.45
2023-01-29T23:29:44.838Z,18.38
2023-01-29T23:34:49.075Z,18.98
2023-01-29T23:39:52.699Z,19.95
2023-01-29T23:44:55.501Z,17.83
2023-01-29T23:49:58.728Z,19.35
2023-01-29T23:55:01.736Z,19.42
